Rognaldsvag, Norway

2:26 PM CET on January 21, 2017 (GMT +0100)
Flora | | Change Station

Elev 0 ft 61.60 °N, 5.01 °E | Updated 13 seconds ago

Rain
Rain
45.7 °F
Feels Like 44 °F
N
3.7
Wind Variable Wind from ESE
Gusts 6.2 mph

Today
High -- | Low -- °F
--% Chance of Precip.
Yesterday
High -- | Low -- °F
Precip. -- in
Pressure 30.39 in
Visibility 6.2 miles
Clouds Few 600 ft
Scattered Clouds 1200 ft
Mostly Cloudy 1800 ft
Windchill 44 °F
Dew Point 45 °F
Humidity 96%
Rainfall 0.05 in
Snow Depth Not available.
9:29 AM 4:15 PM
Waning Crescent, 35% visible
METAR ENFL 211320Z 14008KT 9999 FEW006 SCT012 BKN018 06/06 Q1029
Pressure 30.39 in
Visibility 6.2 miles
Clouds Few 600 ft
Scattered Clouds 1200 ft
Mostly Cloudy 1800 ft
Windchill 44 °F
Dew Point 45 °F
Humidity 96%
Rainfall 0.05 in
Snow Depth Not available.
9:29 AM 4:15 PM
Waning Crescent, 35% visible
METAR ENFL 211320Z 14008KT 9999 FEW006 SCT012 BKN018 06/06 Q1029

Get Your Daily Forecast Email!

Thanks for signing up!

Be on the lookout for a verification email in your inbox.

You'll start receiving the daily forecast at 8 AM.

×

10-Day Weather Forecast

×

Almanac

Astronomy

Jan. 21, 2017 Rise Set
Actual Time
Civil Twilight
Nautical Twilight
Astronomical Twilight
Moon
Length of Visible Light
Length of Day
Tomorrow will be .
, % of the Moon is Illuminated

Today's Extremes

Country Highs Country Lows

Community

WunderPhotos

Upload Photos

1,962,540 photos uploaded!

WunderBlog® & News

Nearby

Air Quality

  Air Quality AQ Index Pollutant
Not available.

Snow Depth

Station Depth Elevation

Earthquake Activity

City Distance Mag. Time & Date
Minimum magnitude displayed is 2.5.

Coastal Water Temperatures

Place Temperature

Stations

Nearby Weather Stations

Station Location Temp. Windchill Dew Point Humidity Wind Precip. Elev Updated Type